sensor_id;sensor_type;location;lat;lon;timestamp;P1;durP1;ratioP1;P2;durP2;ratioP2
59587;SDS011;45412;54.472;18.464;2023-02-26T00:00:29;8.00;;;1.60;;
59587;SDS011;45412;54.472;18.464;2023-02-26T00:03:34;6.10;;;1.50;;
59587;SDS011;45412;54.472;18.464;2023-02-26T00:06:24;4.70;;;1.20;;
59587;SDS011;45412;54.472;18.464;2023-02-26T00:09:13;4.50;;;1.10;;
59587;SDS011;45412;54.472;18.464;2023-02-26T00:12:01;4.30;;;1.10;;
59587;SDS011;45412;54.472;18.464;2023-02-26T00:14:49;6.20;;;1.30;;
59587;SDS011;45412;54.472;18.464;2023-02-26T00:18:12;5.60;;;1.20;;
59587;SDS011;45412;54.472;18.464;2023-02-26T00:21:03;4.40;;;1.00;;
59587;SDS011;45412;54.472;18.464;2023-02-26T00:23:51;4.20;;;1.10;;
59587;SDS011;45412;54.472;18.464;2023-02-26T00:26:40;4.30;;;1.00;;
59587;SDS011;45412;54.472;18.464;2023-02-26T00:29:28;4.80;;;1.00;;
59587;SDS011;45412;54.472;18.464;2023-02-26T00:32:17;3.30;;;0.80;;
59587;SDS011;45412;54.472;18.464;2023-02-26T00:35:07;4.90;;;1.00;;
59587;SDS011;45412;54.472;18.464;2023-02-26T00:38:05;4.20;;;1.20;;
59587;SDS011;45412;54.472;18.464;2023-02-26T00:40:57;4.00;;;1.00;;
59587;SDS011;45412;54.472;18.464;2023-02-26T00:43:45;5.50;;;1.20;;
59587;SDS011;45412;54.472;18.464;2023-02-26T00:46:40;5.50;;;1.50;;
59587;SDS011;45412;54.472;18.464;2023-02-26T00:55:59;4.10;;;1.00;;
59587;SDS011;45412;54.472;18.464;2023-02-26T00:58:47;5.60;;;1.30;;
59587;SDS011;45412;54.472;18.464;2023-02-26T01:01:35;5.40;;;1.30;;
59587;SDS011;45412;54.472;18.464;2023-02-26T01:04:24;4.90;;;1.00;;
59587;SDS011;45412;54.472;18.464;2023-02-26T01:07:12;5.50;;;1.30;;
59587;SDS011;45412;54.472;18.464;2023-02-26T01:10:01;6.00;;;1.20;;
59587;SDS011;45412;54.472;18.464;2023-02-26T01:12:50;7.00;;;1.70;;
59587;SDS011;45412;54.472;18.464;2023-02-26T01:15:39;6.90;;;1.50;;
59587;SDS011;45412;54.472;18.464;2023-02-26T01:18:41;6.60;;;1.30;;
59587;SDS011;45412;54.472;18.464;2023-02-26T01:21:35;7.50;;;1.40;;
59587;SDS011;45412;54.472;18.464;2023-02-26T01:24:28;5.60;;;1.10;;
59587;SDS011;45412;54.472;18.464;2023-02-26T01:27:18;6.30;;;1.20;;
59587;SDS011;45412;54.472;18.464;2023-02-26T01:30:06;5.20;;;1.10;;
59587;SDS011;45412;54.472;18.464;2023-02-26T01:33:09;5.90;;;1.10;;
59587;SDS011;45412;54.472;18.464;2023-02-26T01:36:23;5.70;;;1.20;;
59587;SDS011;45412;54.472;18.464;2023-02-26T01:39:26;5.60;;;1.20;;
59587;SDS011;45412;54.472;18.464;2023-02-26T01:42:29;4.90;;;1.20;;
59587;SDS011;45412;54.472;18.464;2023-02-26T01:45:32;5.90;;;1.40;;
59587;SDS011;45412;54.472;18.464;2023-02-26T01:48:53;5.60;;;1.30;;
59587;SDS011;45412;54.472;18.464;2023-02-26T01:51:53;4.70;;;1.10;;
59587;SDS011;45412;54.472;18.464;2023-02-26T01:54:41;6.90;;;1.20;;
59587;SDS011;45412;54.472;18.464;2023-02-26T01:57:29;4.80;;;1.00;;
59587;SDS011;45412;54.472;18.464;2023-02-26T02:00:18;4.30;;;0.90;;
59587;SDS011;45412;54.472;18.464;2023-02-26T02:03:06;4.10;;;1.10;;
59587;SDS011;45412;54.472;18.464;2023-02-26T02:05:57;4.30;;;1.10;;
59587;SDS011;45412;54.472;18.464;2023-02-26T02:08:50;4.10;;;1.00;;
59587;SDS011;45412;54.472;18.464;2023-02-26T02:11:52;3.90;;;1.10;;
59587;SDS011;45412;54.472;18.464;2023-02-26T02:15:11;5.40;;;1.10;;
59587;SDS011;45412;54.472;18.464;2023-02-26T02:18:03;5.40;;;1.00;;
59587;SDS011;45412;54.472;18.464;2023-02-26T02:27:22;4.80;;;1.30;;
59587;SDS011;45412;54.472;18.464;2023-02-26T02:30:19;6.20;;;1.30;;
59587;SDS011;45412;54.472;18.464;2023-02-26T02:33:17;4.30;;;1.00;;
59587;SDS011;45412;54.472;18.464;2023-02-26T02:36:14;3.90;;;1.10;;
59587;SDS011;45412;54.472;18.464;2023-02-26T02:39:21;4.80;;;1.00;;
59587;SDS011;45412;54.472;18.464;2023-02-26T02:42:23;5.00;;;1.10;;
59587;SDS011;45412;54.472;18.464;2023-02-26T02:45:23;5.70;;;1.30;;
59587;SDS011;45412;54.472;18.464;2023-02-26T02:48:37;4.20;;;1.00;;
59587;SDS011;45412;54.472;18.464;2023-02-26T02:52:14;4.90;;;1.00;;
59587;SDS011;45412;54.472;18.464;2023-02-26T02:55:03;4.90;;;1.10;;
59587;SDS011;45412;54.472;18.464;2023-02-26T02:58:05;6.60;;;1.10;;
59587;SDS011;45412;54.472;18.464;2023-02-26T03:01:00;4.30;;;1.10;;
59587;SDS011;45412;54.472;18.464;2023-02-26T03:04:18;5.00;;;1.00;;
59587;SDS011;45412;54.472;18.464;2023-02-26T03:07:06;5.40;;;1.10;;
59587;SDS011;45412;54.472;18.464;2023-02-26T03:09:53;5.10;;;1.30;;
59587;SDS011;45412;54.472;18.464;2023-02-26T03:12:42;7.60;;;1.30;;
59587;SDS011;45412;54.472;18.464;2023-02-26T03:15:36;6.90;;;1.80;;
59587;SDS011;45412;54.472;18.464;2023-02-26T03:24:57;5.20;;;1.20;;
59587;SDS011;45412;54.472;18.464;2023-02-26T03:31:28;4.40;;;1.00;;
59587;SDS011;45412;54.472;18.464;2023-02-26T03:34:26;3.70;;;0.90;;
59587;SDS011;45412;54.472;18.464;2023-02-26T03:40:27;6.50;;;1.10;;
59587;SDS011;45412;54.472;18.464;2023-02-26T03:46:46;7.40;;;1.40;;
59587;SDS011;45412;54.472;18.464;2023-02-26T03:49:56;7.80;;;1.40;;
59587;SDS011;45412;54.472;18.464;2023-02-26T03:52:49;6.40;;;1.00;;
59587;SDS011;45412;54.472;18.464;2023-02-26T03:56:05;6.90;;;1.20;;
59587;SDS011;45412;54.472;18.464;2023-02-26T03:59:20;5.10;;;1.30;;
59587;SDS011;45412;54.472;18.464;2023-02-26T04:02:32;4.00;;;0.90;;
59587;SDS011;45412;54.472;18.464;2023-02-26T04:05:37;6.20;;;1.10;;
59587;SDS011;45412;54.472;18.464;2023-02-26T04:08:28;4.80;;;1.30;;
59587;SDS011;45412;54.472;18.464;2023-02-26T04:11:21;4.20;;;0.90;;
59587;SDS011;45412;54.472;18.464;2023-02-26T04:14:12;6.60;;;1.00;;
59587;SDS011;45412;54.472;18.464;2023-02-26T04:17:01;4.80;;;1.50;;
59587;SDS011;45412;54.472;18.464;2023-02-26T04:19:49;7.90;;;1.40;;
59587;SDS011;45412;54.472;18.464;2023-02-26T04:22:38;5.80;;;1.30;;
59587;SDS011;45412;54.472;18.464;2023-02-26T04:25:26;5.10;;;1.50;;
59587;SDS011;45412;54.472;18.464;2023-02-26T04:28:14;7.70;;;1.60;;
59587;SDS011;45412;54.472;18.464;2023-02-26T04:31:03;8.30;;;1.30;;
59587;SDS011;45412;54.472;18.464;2023-02-26T04:33:53;8.70;;;1.50;;
59587;SDS011;45412;54.472;18.464;2023-02-26T04:36:41;6.20;;;1.40;;
59587;SDS011;45412;54.472;18.464;2023-02-26T04:39:29;6.30;;;1.30;;
59587;SDS011;45412;54.472;18.464;2023-02-26T04:42:18;6.60;;;1.40;;
59587;SDS011;45412;54.472;18.464;2023-02-26T04:45:06;7.10;;;1.50;;
59587;SDS011;45412;54.472;18.464;2023-02-26T04:47:56;6.30;;;1.30;;
59587;SDS011;45412;54.472;18.464;2023-02-26T04:50:44;4.80;;;1.50;;
59587;SDS011;45412;54.472;18.464;2023-02-26T04:53:33;7.30;;;1.30;;
59587;SDS011;45412;54.472;18.464;2023-02-26T04:56:21;6.50;;;1.20;;
59587;SDS011;45412;54.472;18.464;2023-02-26T04:59:09;6.40;;;1.60;;
59587;SDS011;45412;54.472;18.464;2023-02-26T05:01:57;7.00;;;1.20;;
59587;SDS011;45412;54.472;18.464;2023-02-26T05:04:46;4.80;;;0.90;;
59587;SDS011;45412;54.472;18.464;2023-02-26T05:07:33;5.50;;;1.20;;
59587;SDS011;45412;54.472;18.464;2023-02-26T05:10:22;5.30;;;1.30;;
59587;SDS011;45412;54.472;18.464;2023-02-26T05:13:11;6.90;;;1.50;;
59587;SDS011;45412;54.472;18.464;2023-02-26T05:16:00;6.70;;;1.20;;
59587;SDS011;45412;54.472;18.464;2023-02-26T05:18:48;8.30;;;1.40;;
59587;SDS011;45412;54.472;18.464;2023-02-26T05:21:36;7.20;;;1.30;;
59587;SDS011;45412;54.472;18.464;2023-02-26T05:24:24;9.00;;;1.80;;
59587;SDS011;45412;54.472;18.464;2023-02-26T05:27:13;5.50;;;1.70;;
59587;SDS011;45412;54.472;18.464;2023-02-26T05:30:05;6.60;;;1.30;;
59587;SDS011;45412;54.472;18.464;2023-02-26T05:32:54;5.10;;;1.30;;
59587;SDS011;45412;54.472;18.464;2023-02-26T05:35:42;11.40;;;3.50;;
59587;SDS011;45412;54.472;18.464;2023-02-26T05:38:30;10.90;;;2.70;;
59587;SDS011;45412;54.472;18.464;2023-02-26T05:41:18;13.50;;;3.80;;
59587;SDS011;45412;54.472;18.464;2023-02-26T05:44:05;12.70;;;2.60;;
59587;SDS011;45412;54.472;18.464;2023-02-26T05:46:54;12.60;;;3.10;;
59587;SDS011;45412;54.472;18.464;2023-02-26T05:49:42;9.30;;;2.40;;
59587;SDS011;45412;54.472;18.464;2023-02-26T05:52:30;11.70;;;2.60;;
59587;SDS011;45412;54.472;18.464;2023-02-26T05:55:18;8.90;;;2.30;;
59587;SDS011;45412;54.472;18.464;2023-02-26T05:58:06;9.40;;;1.80;;
59587;SDS011;45412;54.472;18.464;2023-02-26T06:00:54;7.50;;;1.90;;
59587;SDS011;45412;54.472;18.464;2023-02-26T06:03:44;5.80;;;1.30;;
59587;SDS011;45412;54.472;18.464;2023-02-26T06:06:32;7.20;;;1.60;;
59587;SDS011;45412;54.472;18.464;2023-02-26T06:09:19;8.00;;;1.80;;
59587;SDS011;45412;54.472;18.464;2023-02-26T06:12:08;7.80;;;1.70;;
59587;SDS011;45412;54.472;18.464;2023-02-26T06:14:56;8.20;;;1.70;;
59587;SDS011;45412;54.472;18.464;2023-02-26T06:17:44;4.80;;;1.30;;
59587;SDS011;45412;54.472;18.464;2023-02-26T06:20:32;7.10;;;1.80;;
59587;SDS011;45412;54.472;18.464;2023-02-26T06:23:20;9.10;;;1.60;;
59587;SDS011;45412;54.472;18.464;2023-02-26T06:26:08;8.70;;;1.50;;
59587;SDS011;45412;54.472;18.464;2023-02-26T06:28:55;8.70;;;1.60;;
59587;SDS011;45412;54.472;18.464;2023-02-26T06:31:44;7.70;;;1.60;;
59587;SDS011;45412;54.472;18.464;2023-02-26T06:34:32;6.00;;;1.60;;
59587;SDS011;45412;54.472;18.464;2023-02-26T06:37:20;7.70;;;1.80;;
59587;SDS011;45412;54.472;18.464;2023-02-26T06:40:08;10.10;;;1.90;;
59587;SDS011;45412;54.472;18.464;2023-02-26T06:42:57;11.20;;;2.20;;
59587;SDS011;45412;54.472;18.464;2023-02-26T06:45:45;11.80;;;3.20;;
59587;SDS011;45412;54.472;18.464;2023-02-26T06:48:33;19.30;;;6.30;;
59587;SDS011;45412;54.472;18.464;2023-02-26T06:51:21;12.20;;;4.10;;
59587;SDS011;45412;54.472;18.464;2023-02-26T06:54:09;13.90;;;4.30;;
59587;SDS011;45412;54.472;18.464;2023-02-26T06:56:57;13.50;;;4.50;;
59587;SDS011;45412;54.472;18.464;2023-02-26T06:59:46;9.10;;;2.70;;
59587;SDS011;45412;54.472;18.464;2023-02-26T07:02:35;13.20;;;3.80;;
59587;SDS011;45412;54.472;18.464;2023-02-26T07:05:23;15.30;;;5.00;;
59587;SDS011;45412;54.472;18.464;2023-02-26T07:08:12;9.10;;;3.40;;
59587;SDS011;45412;54.472;18.464;2023-02-26T07:11:01;9.10;;;2.70;;
59587;SDS011;45412;54.472;18.464;2023-02-26T07:13:49;11.50;;;3.20;;
59587;SDS011;45412;54.472;18.464;2023-02-26T07:16:40;12.20;;;3.10;;
59587;SDS011;45412;54.472;18.464;2023-02-26T07:19:28;8.50;;;2.10;;
59587;SDS011;45412;54.472;18.464;2023-02-26T07:22:17;13.10;;;3.90;;
59587;SDS011;45412;54.472;18.464;2023-02-26T07:25:09;10.00;;;2.80;;
59587;SDS011;45412;54.472;18.464;2023-02-26T07:27:57;9.70;;;3.00;;
59587;SDS011;45412;54.472;18.464;2023-02-26T07:30:46;10.00;;;2.70;;
59587;SDS011;45412;54.472;18.464;2023-02-26T07:33:34;9.70;;;2.40;;
59587;SDS011;45412;54.472;18.464;2023-02-26T07:36:22;7.50;;;1.90;;
59587;SDS011;45412;54.472;18.464;2023-02-26T07:39:11;8.20;;;1.80;;
59587;SDS011;45412;54.472;18.464;2023-02-26T07:41:59;8.60;;;1.80;;
59587;SDS011;45412;54.472;18.464;2023-02-26T07:44:47;7.40;;;1.60;;
59587;SDS011;45412;54.472;18.464;2023-02-26T07:47:36;7.30;;;1.80;;
59587;SDS011;45412;54.472;18.464;2023-02-26T07:50:25;6.20;;;1.50;;
59587;SDS011;45412;54.472;18.464;2023-02-26T07:53:16;6.90;;;1.50;;
59587;SDS011;45412;54.472;18.464;2023-02-26T07:56:04;6.50;;;1.50;;
59587;SDS011;45412;54.472;18.464;2023-02-26T07:58:53;7.20;;;1.70;;
59587;SDS011;45412;54.472;18.464;2023-02-26T08:01:41;7.40;;;1.80;;
59587;SDS011;45412;54.472;18.464;2023-02-26T08:04:29;7.50;;;2.40;;
59587;SDS011;45412;54.472;18.464;2023-02-26T08:07:19;7.30;;;1.50;;
59587;SDS011;45412;54.472;18.464;2023-02-26T08:10:08;8.70;;;2.00;;
59587;SDS011;45412;54.472;18.464;2023-02-26T08:12:56;6.80;;;1.80;;
59587;SDS011;45412;54.472;18.464;2023-02-26T08:15:46;7.20;;;2.00;;
59587;SDS011;45412;54.472;18.464;2023-02-26T08:18:35;6.60;;;1.70;;
59587;SDS011;45412;54.472;18.464;2023-02-26T08:21:23;8.20;;;1.60;;
59587;SDS011;45412;54.472;18.464;2023-02-26T08:24:11;7.50;;;1.70;;
59587;SDS011;45412;54.472;18.464;2023-02-26T08:26:59;6.40;;;1.70;;
59587;SDS011;45412;54.472;18.464;2023-02-26T08:29:47;7.10;;;2.00;;
59587;SDS011;45412;54.472;18.464;2023-02-26T08:32:37;7.30;;;1.70;;
59587;SDS011;45412;54.472;18.464;2023-02-26T08:35:26;10.70;;;2.40;;
59587;SDS011;45412;54.472;18.464;2023-02-26T08:38:14;11.10;;;2.10;;
59587;SDS011;45412;54.472;18.464;2023-02-26T08:41:03;7.00;;;2.00;;
59587;SDS011;45412;54.472;18.464;2023-02-26T08:43:52;10.00;;;2.50;;
59587;SDS011;45412;54.472;18.464;2023-02-26T08:46:40;8.70;;;1.80;;
59587;SDS011;45412;54.472;18.464;2023-02-26T08:49:28;11.50;;;2.30;;
59587;SDS011;45412;54.472;18.464;2023-02-26T08:52:16;7.70;;;1.80;;
59587;SDS011;45412;54.472;18.464;2023-02-26T08:55:04;10.60;;;3.70;;
59587;SDS011;45412;54.472;18.464;2023-02-26T08:57:53;15.50;;;4.80;;
59587;SDS011;45412;54.472;18.464;2023-02-26T09:00:41;10.70;;;2.60;;
59587;SDS011;45412;54.472;18.464;2023-02-26T09:03:29;7.60;;;2.20;;
59587;SDS011;45412;54.472;18.464;2023-02-26T09:06:17;8.80;;;2.20;;
59587;SDS011;45412;54.472;18.464;2023-02-26T09:09:05;6.80;;;1.90;;
59587;SDS011;45412;54.472;18.464;2023-02-26T09:11:53;8.00;;;2.20;;
59587;SDS011;45412;54.472;18.464;2023-02-26T09:14:41;7.10;;;1.70;;
59587;SDS011;45412;54.472;18.464;2023-02-26T09:17:29;8.70;;;1.90;;
59587;SDS011;45412;54.472;18.464;2023-02-26T09:20:17;7.90;;;1.60;;
59587;SDS011;45412;54.472;18.464;2023-02-26T09:23:05;8.60;;;2.20;;
59587;SDS011;45412;54.472;18.464;2023-02-26T09:25:54;7.80;;;2.20;;
59587;SDS011;45412;54.472;18.464;2023-02-26T09:28:43;7.70;;;2.00;;
59587;SDS011;45412;54.472;18.464;2023-02-26T09:31:32;10.60;;;2.40;;
59587;SDS011;45412;54.472;18.464;2023-02-26T09:34:20;7.20;;;1.90;;
59587;SDS011;45412;54.472;18.464;2023-02-26T09:37:08;8.10;;;2.00;;
59587;SDS011;45412;54.472;18.464;2023-02-26T09:39:56;7.20;;;2.00;;
59587;SDS011;45412;54.472;18.464;2023-02-26T09:47:02;7.30;;;1.80;;
59587;SDS011;45412;54.472;18.464;2023-02-26T09:50:02;8.30;;;1.60;;
59587;SDS011;45412;54.472;18.464;2023-02-26T09:56:10;7.80;;;2.10;;
59587;SDS011;45412;54.472;18.464;2023-02-26T09:59:04;7.50;;;2.10;;
59587;SDS011;45412;54.472;18.464;2023-02-26T10:02:16;7.30;;;1.50;;
59587;SDS011;45412;54.472;18.464;2023-02-26T10:09:21;8.90;;;2.20;;
59587;SDS011;45412;54.472;18.464;2023-02-26T10:12:12;8.50;;;1.90;;
59587;SDS011;45412;54.472;18.464;2023-02-26T10:21:16;8.80;;;2.00;;
59587;SDS011;45412;54.472;18.464;2023-02-26T10:24:18;7.40;;;1.90;;
59587;SDS011;45412;54.472;18.464;2023-02-26T10:27:14;7.60;;;2.00;;
59587;SDS011;45412;54.472;18.464;2023-02-26T10:30:09;9.40;;;2.10;;
59587;SDS011;45412;54.472;18.464;2023-02-26T10:33:28;7.80;;;2.20;;
59587;SDS011;45412;54.472;18.464;2023-02-26T10:40:23;8.90;;;2.00;;
59587;SDS011;45412;54.472;18.464;2023-02-26T10:49:50;7.70;;;2.10;;
59587;SDS011;45412;54.472;18.464;2023-02-26T10:52:45;11.50;;;2.40;;
59587;SDS011;45412;54.472;18.464;2023-02-26T10:55:41;6.30;;;1.70;;
59587;SDS011;45412;54.472;18.464;2023-02-26T10:58:53;7.20;;;1.80;;
59587;SDS011;45412;54.472;18.464;2023-02-26T11:01:41;7.80;;;2.00;;
59587;SDS011;45412;54.472;18.464;2023-02-26T11:04:30;7.60;;;1.90;;
59587;SDS011;45412;54.472;18.464;2023-02-26T11:07:18;7.70;;;1.80;;
59587;SDS011;45412;54.472;18.464;2023-02-26T11:10:20;5.80;;;1.80;;
59587;SDS011;45412;54.472;18.464;2023-02-26T11:13:11;6.40;;;1.90;;
59587;SDS011;45412;54.472;18.464;2023-02-26T11:16:17;7.80;;;2.10;;
59587;SDS011;45412;54.472;18.464;2023-02-26T11:19:06;7.90;;;2.10;;
59587;SDS011;45412;54.472;18.464;2023-02-26T11:21:55;6.90;;;1.70;;
59587;SDS011;45412;54.472;18.464;2023-02-26T11:24:48;7.30;;;1.80;;
59587;SDS011;45412;54.472;18.464;2023-02-26T11:27:38;8.80;;;2.10;;
59587;SDS011;45412;54.472;18.464;2023-02-26T11:30:30;9.70;;;1.80;;
59587;SDS011;45412;54.472;18.464;2023-02-26T11:33:35;8.20;;;1.70;;
59587;SDS011;45412;54.472;18.464;2023-02-26T11:36:25;8.10;;;1.80;;
59587;SDS011;45412;54.472;18.464;2023-02-26T11:39:24;7.90;;;2.00;;
59587;SDS011;45412;54.472;18.464;2023-02-26T11:42:15;11.60;;;4.20;;
59587;SDS011;45412;54.472;18.464;2023-02-26T11:45:06;8.70;;;2.60;;
59587;SDS011;45412;54.472;18.464;2023-02-26T11:48:03;6.90;;;1.80;;
59587;SDS011;45412;54.472;18.464;2023-02-26T11:50:56;6.00;;;1.50;;
59587;SDS011;45412;54.472;18.464;2023-02-26T11:56:40;6.30;;;1.80;;
59587;SDS011;45412;54.472;18.464;2023-02-26T11:59:31;8.10;;;1.90;;
59587;SDS011;45412;54.472;18.464;2023-02-26T12:02:21;7.70;;;1.70;;
59587;SDS011;45412;54.472;18.464;2023-02-26T12:05:13;5.80;;;1.70;;
59587;SDS011;45412;54.472;18.464;2023-02-26T12:08:06;7.50;;;1.80;;
59587;SDS011;45412;54.472;18.464;2023-02-26T12:11:40;9.10;;;2.00;;
59587;SDS011;45412;54.472;18.464;2023-02-26T12:27:49;6.10;;;1.80;;
59587;SDS011;45412;54.472;18.464;2023-02-26T12:31:07;7.30;;;1.50;;
59587;SDS011;45412;54.472;18.464;2023-02-26T12:37:14;7.30;;;1.90;;
59587;SDS011;45412;54.472;18.464;2023-02-26T12:40:16;7.70;;;1.60;;
59587;SDS011;45412;54.472;18.464;2023-02-26T12:43:49;6.60;;;1.60;;
59587;SDS011;45412;54.472;18.464;2023-02-26T12:57:02;6.50;;;1.60;;
59587;SDS011;45412;54.472;18.464;2023-02-26T13:20:49;6.20;;;1.90;;
59587;SDS011;45412;54.472;18.464;2023-02-26T13:24:06;7.90;;;1.90;;
59587;SDS011;45412;54.472;18.464;2023-02-26T13:27:00;6.40;;;1.40;;
59587;SDS011;45412;54.472;18.464;2023-02-26T13:33:16;5.50;;;1.60;;
59587;SDS011;45412;54.472;18.464;2023-02-26T13:36:07;6.40;;;1.60;;
59587;SDS011;45412;54.472;18.464;2023-02-26T13:43:04;7.00;;;1.40;;
59587;SDS011;45412;54.472;18.464;2023-02-26T13:46:11;7.40;;;1.50;;
59587;SDS011;45412;54.472;18.464;2023-02-26T13:49:17;5.40;;;1.50;;
59587;SDS011;45412;54.472;18.464;2023-02-26T13:52:27;8.10;;;1.90;;
59587;SDS011;45412;54.472;18.464;2023-02-26T13:55:45;7.50;;;1.90;;
59587;SDS011;45412;54.472;18.464;2023-02-26T13:58:38;9.30;;;2.30;;
59587;SDS011;45412;54.472;18.464;2023-02-26T14:01:32;8.50;;;2.10;;
59587;SDS011;45412;54.472;18.464;2023-02-26T14:04:29;7.20;;;2.00;;
59587;SDS011;45412;54.472;18.464;2023-02-26T14:07:46;7.40;;;1.80;;
59587;SDS011;45412;54.472;18.464;2023-02-26T14:11:02;6.50;;;2.00;;
59587;SDS011;45412;54.472;18.464;2023-02-26T14:14:22;5.60;;;1.80;;
59587;SDS011;45412;54.472;18.464;2023-02-26T14:23:20;6.50;;;1.50;;
59587;SDS011;45412;54.472;18.464;2023-02-26T14:26:20;6.70;;;1.50;;
59587;SDS011;45412;54.472;18.464;2023-02-26T14:29:18;6.10;;;1.50;;
59587;SDS011;45412;54.472;18.464;2023-02-26T14:35:04;6.30;;;1.80;;
59587;SDS011;45412;54.472;18.464;2023-02-26T14:38:13;7.50;;;2.10;;
59587;SDS011;45412;54.472;18.464;2023-02-26T14:44:18;9.60;;;2.20;;
59587;SDS011;45412;54.472;18.464;2023-02-26T14:47:16;7.10;;;1.60;;
59587;SDS011;45412;54.472;18.464;2023-02-26T14:50:05;8.30;;;2.50;;
59587;SDS011;45412;54.472;18.464;2023-02-26T15:19:25;18.50;;;5.30;;
59587;SDS011;45412;54.472;18.464;2023-02-26T15:25:38;16.80;;;4.60;;
59587;SDS011;45412;54.472;18.464;2023-02-26T15:28:31;11.80;;;3.40;;
59587;SDS011;45412;54.472;18.464;2023-02-26T15:31:32;10.10;;;3.10;;
59587;SDS011;45412;54.472;18.464;2023-02-26T15:34:23;10.90;;;3.60;;
59587;SDS011;45412;54.472;18.464;2023-02-26T15:37:19;11.70;;;3.30;;
59587;SDS011;45412;54.472;18.464;2023-02-26T15:40:12;9.60;;;3.00;;
59587;SDS011;45412;54.472;18.464;2023-02-26T15:43:01;9.70;;;2.90;;
59587;SDS011;45412;54.472;18.464;2023-02-26T15:45:52;9.90;;;3.00;;
59587;SDS011;45412;54.472;18.464;2023-02-26T15:48:42;9.90;;;2.80;;
59587;SDS011;45412;54.472;18.464;2023-02-26T15:51:31;9.10;;;3.30;;
59587;SDS011;45412;54.472;18.464;2023-02-26T15:54:21;12.70;;;3.70;;
59587;SDS011;45412;54.472;18.464;2023-02-26T15:57:12;9.20;;;3.00;;
59587;SDS011;45412;54.472;18.464;2023-02-26T16:00:15;10.20;;;3.30;;
59587;SDS011;45412;54.472;18.464;2023-02-26T16:03:13;10.00;;;2.80;;
59587;SDS011;45412;54.472;18.464;2023-02-26T16:06:01;11.30;;;3.40;;
59587;SDS011;45412;54.472;18.464;2023-02-26T16:08:50;8.90;;;3.20;;
59587;SDS011;45412;54.472;18.464;2023-02-26T16:11:39;10.50;;;3.50;;
59587;SDS011;45412;54.472;18.464;2023-02-26T16:14:36;10.90;;;3.60;;
59587;SDS011;45412;54.472;18.464;2023-02-26T16:17:29;10.00;;;3.60;;
59587;SDS011;45412;54.472;18.464;2023-02-26T16:20:23;10.50;;;3.50;;
59587;SDS011;45412;54.472;18.464;2023-02-26T16:23:20;7.50;;;2.50;;
59587;SDS011;45412;54.472;18.464;2023-02-26T16:26:17;6.20;;;2.00;;
59587;SDS011;45412;54.472;18.464;2023-02-26T16:29:20;8.30;;;2.10;;
59587;SDS011;45412;54.472;18.464;2023-02-26T16:32:11;7.90;;;2.20;;
59587;SDS011;45412;54.472;18.464;2023-02-26T16:35:07;7.00;;;2.10;;
59587;SDS011;45412;54.472;18.464;2023-02-26T16:37:57;9.60;;;3.10;;
59587;SDS011;45412;54.472;18.464;2023-02-26T16:40:47;9.50;;;2.80;;
59587;SDS011;45412;54.472;18.464;2023-02-26T16:46:44;7.10;;;2.10;;
59587;SDS011;45412;54.472;18.464;2023-02-26T16:49:35;5.90;;;2.00;;
59587;SDS011;45412;54.472;18.464;2023-02-26T16:52:25;8.70;;;2.50;;
59587;SDS011;45412;54.472;18.464;2023-02-26T16:55:13;8.00;;;2.20;;
59587;SDS011;45412;54.472;18.464;2023-02-26T16:58:07;7.90;;;2.40;;
59587;SDS011;45412;54.472;18.464;2023-02-26T17:01:20;8.40;;;2.20;;
59587;SDS011;45412;54.472;18.464;2023-02-26T17:04:10;7.30;;;2.30;;
59587;SDS011;45412;54.472;18.464;2023-02-26T17:07:08;10.50;;;2.90;;
59587;SDS011;45412;54.472;18.464;2023-02-26T17:10:52;11.80;;;3.30;;
59587;SDS011;45412;54.472;18.464;2023-02-26T17:13:33;9.30;;;3.80;;
59587;SDS011;45412;54.472;18.464;2023-02-26T17:16:22;7.50;;;2.30;;
59587;SDS011;45412;54.472;18.464;2023-02-26T17:19:12;8.10;;;2.20;;
59587;SDS011;45412;54.472;18.464;2023-02-26T17:22:00;7.10;;;2.10;;
59587;SDS011;45412;54.472;18.464;2023-02-26T17:24:50;10.20;;;2.00;;
59587;SDS011;45412;54.472;18.464;2023-02-26T17:27:39;9.90;;;2.00;;
59587;SDS011;45412;54.472;18.464;2023-02-26T17:30:27;8.90;;;2.50;;
59587;SDS011;45412;54.472;18.464;2023-02-26T17:33:19;9.10;;;2.20;;
59587;SDS011;45412;54.472;18.464;2023-02-26T17:36:12;9.40;;;2.20;;
59587;SDS011;45412;54.472;18.464;2023-02-26T17:39:02;7.10;;;1.80;;
59587;SDS011;45412;54.472;18.464;2023-02-26T17:41:50;7.60;;;2.00;;
59587;SDS011;45412;54.472;18.464;2023-02-26T17:44:38;10.30;;;2.20;;
59587;SDS011;45412;54.472;18.464;2023-02-26T17:47:26;7.70;;;2.50;;
59587;SDS011;45412;54.472;18.464;2023-02-26T17:53:18;7.70;;;1.90;;
59587;SDS011;45412;54.472;18.464;2023-02-26T17:56:14;7.10;;;1.60;;
59587;SDS011;45412;54.472;18.464;2023-02-26T17:59:10;10.40;;;2.50;;
59587;SDS011;45412;54.472;18.464;2023-02-26T18:01:59;11.20;;;2.30;;
59587;SDS011;45412;54.472;18.464;2023-02-26T18:04:48;9.70;;;2.50;;
59587;SDS011;45412;54.472;18.464;2023-02-26T18:07:36;10.60;;;2.50;;
59587;SDS011;45412;54.472;18.464;2023-02-26T18:10:25;10.20;;;2.30;;
59587;SDS011;45412;54.472;18.464;2023-02-26T18:13:13;16.90;;;4.60;;
59587;SDS011;45412;54.472;18.464;2023-02-26T18:16:01;9.20;;;2.80;;
59587;SDS011;45412;54.472;18.464;2023-02-26T18:18:50;10.40;;;3.00;;
59587;SDS011;45412;54.472;18.464;2023-02-26T18:21:38;9.90;;;2.10;;
59587;SDS011;45412;54.472;18.464;2023-02-26T18:24:26;9.30;;;2.80;;
59587;SDS011;45412;54.472;18.464;2023-02-26T18:27:20;10.40;;;2.80;;
59587;SDS011;45412;54.472;18.464;2023-02-26T18:30:16;9.00;;;2.90;;
59587;SDS011;45412;54.472;18.464;2023-02-26T18:33:11;11.20;;;4.00;;
59587;SDS011;45412;54.472;18.464;2023-02-26T18:36:00;9.50;;;3.40;;
59587;SDS011;45412;54.472;18.464;2023-02-26T18:38:47;9.80;;;3.30;;
59587;SDS011;45412;54.472;18.464;2023-02-26T18:41:35;12.40;;;4.10;;
59587;SDS011;45412;54.472;18.464;2023-02-26T18:44:24;11.70;;;4.10;;
59587;SDS011;45412;54.472;18.464;2023-02-26T18:47:14;8.80;;;2.60;;
59587;SDS011;45412;54.472;18.464;2023-02-26T18:50:03;7.80;;;2.90;;
59587;SDS011;45412;54.472;18.464;2023-02-26T18:52:52;11.60;;;3.20;;
59587;SDS011;45412;54.472;18.464;2023-02-26T18:55:40;10.40;;;3.90;;
59587;SDS011;45412;54.472;18.464;2023-02-26T18:58:28;11.60;;;3.80;;
59587;SDS011;45412;54.472;18.464;2023-02-26T19:01:16;14.20;;;4.50;;
59587;SDS011;45412;54.472;18.464;2023-02-26T19:04:05;14.60;;;4.70;;
59587;SDS011;45412;54.472;18.464;2023-02-26T19:06:54;14.10;;;4.80;;
59587;SDS011;45412;54.472;18.464;2023-02-26T19:09:42;15.40;;;4.60;;
59587;SDS011;45412;54.472;18.464;2023-02-26T19:12:30;12.50;;;4.20;;
59587;SDS011;45412;54.472;18.464;2023-02-26T19:15:18;15.40;;;5.40;;
59587;SDS011;45412;54.472;18.464;2023-02-26T19:18:06;15.60;;;5.40;;
59587;SDS011;45412;54.472;18.464;2023-02-26T19:20:55;18.00;;;5.70;;
59587;SDS011;45412;54.472;18.464;2023-02-26T19:23:43;22.40;;;7.30;;
59587;SDS011;45412;54.472;18.464;2023-02-26T19:26:32;20.80;;;5.90;;
59587;SDS011;45412;54.472;18.464;2023-02-26T19:29:21;17.30;;;3.90;;
59587;SDS011;45412;54.472;18.464;2023-02-26T19:32:09;13.50;;;3.20;;
59587;SDS011;45412;54.472;18.464;2023-02-26T19:34:58;14.40;;;2.90;;
59587;SDS011;45412;54.472;18.464;2023-02-26T19:37:47;16.80;;;3.90;;
59587;SDS011;45412;54.472;18.464;2023-02-26T19:40:35;16.40;;;3.80;;
59587;SDS011;45412;54.472;18.464;2023-02-26T19:43:23;17.40;;;4.20;;
59587;SDS011;45412;54.472;18.464;2023-02-26T19:46:12;12.10;;;3.50;;